createdAt,value
2022-08-01T00:00:13.913Z,39.60
2022-08-01T00:05:13.851Z,40.35
2022-08-01T00:10:14.307Z,40.37
2022-08-01T00:15:15.850Z,40.12
2022-08-01T00:20:15.431Z,39.87
2022-08-01T00:25:13.107Z,40.14
2022-08-01T00:30:14.574Z,40.19
2022-08-01T00:35:15.396Z,40.39
2022-08-01T00:40:13.412Z,40.84
2022-08-01T00:45:11.902Z,41.14
2022-08-01T00:50:10.810Z,41.26
2022-08-01T00:55:13.117Z,41.23
2022-08-01T01:00:33.741Z,41.10
2022-08-01T01:05:41.837Z,41.00
2022-08-01T01:11:13.816Z,41.44
2022-08-01T01:16:47.735Z,41.44
2022-08-01T01:22:20.654Z,41.53
2022-08-01T01:27:33.730Z,41.36
2022-08-01T01:32:54.307Z,41.44
2022-08-01T01:37:58.640Z,41.47
2022-08-01T01:42:57.713Z,41.06
2022-08-01T01:47:57.846Z,40.84
2022-08-01T01:52:59.210Z,40.89
2022-08-01T01:57:58.365Z,41.20
2022-08-01T02:02:58.011Z,41.43
2022-08-01T02:07:59.705Z,41.13
2022-08-01T02:13:00.124Z,41.58
2022-08-01T02:18:02.908Z,41.61
2022-08-01T02:23:07.147Z,41.64
2022-08-01T02:28:08.661Z,41.06
2022-08-01T02:33:15.808Z,41.50
2022-08-01T02:38:15.742Z,41.14
2022-08-01T02:43:25.165Z,41.28
2022-08-01T02:48:26.677Z,41.58
2022-08-01T02:53:43.775Z,42.16
2022-08-01T02:58:44.794Z,42.07
2022-08-01T03:03:44.895Z,42.68
2022-08-01T03:08:44.785Z,42.14
2022-08-01T03:13:46.023Z,42.44
2022-08-01T03:18:46.497Z,42.46
2022-08-01T03:23:46.402Z,42.33
2022-08-01T03:28:47.422Z,42.18
2022-08-01T03:33:47.931Z,41.86
2022-08-01T03:38:48.149Z,41.44
2022-08-01T03:43:49.994Z,42.02
2022-08-01T03:48:51.796Z,41.32
2022-08-01T03:53:52.565Z,41.21
2022-08-01T03:58:51.600Z,41.01
2022-08-01T04:04:13.160Z,41.05
2022-08-01T04:09:13.737Z,40.38
2022-08-01T04:14:11.742Z,39.81
2022-08-01T04:19:09.573Z,39.98
2022-08-01T04:24:14.004Z,38.22
2022-08-01T04:29:18.612Z,37.18
2022-08-01T04:34:22.024Z,34.56
2022-08-01T04:44:34.511Z,33.82
2022-08-01T04:49:49.252Z,33.94
2022-08-01T04:54:47.380Z,34.41
2022-08-01T04:59:45.057Z,35.33
2022-08-01T05:04:46.392Z,35.88
2022-08-01T05:10:09.632Z,36.21
2022-08-01T05:15:15.260Z,35.87
2022-08-01T05:20:16.008Z,36.25
2022-08-01T05:25:20.380Z,35.84
2022-08-01T05:30:29.971Z,36.00
2022-08-01T05:35:47.653Z,36.23
2022-08-01T05:40:46.364Z,33.27
2022-08-01T05:45:44.951Z,30.03
2022-08-01T05:50:42.899Z,27.42
2022-08-01T05:55:40.561Z,24.37
2022-08-01T06:00:39.224Z,20.99
2022-08-01T06:05:41.564Z,19.69
2022-08-01T06:10:42.108Z,20.13
2022-08-01T06:15:39.995Z,17.09
2022-08-01T06:20:37.812Z,16.22
2022-08-01T06:25:35.832Z,14.19
2022-08-01T06:30:32.896Z,14.71
2022-08-01T06:35:39.830Z,14.18
2022-08-01T06:40:41.869Z,13.31
2022-08-01T06:45:40.301Z,13.31
2022-08-01T06:50:38.362Z,13.03
2022-08-01T06:55:43.958Z,11.98
2022-08-01T07:00:57.590Z,12.96
2022-08-01T07:05:55.781Z,12.99
2022-08-01T07:10:53.402Z,12.26
2022-08-01T07:15:53.641Z,12.09
2022-08-01T07:20:52.810Z,12.04
2022-08-01T07:25:59.353Z,11.93
2022-08-01T07:30:58.026Z,12.38
2022-08-01T07:35:55.866Z,13.22
2022-08-01T07:40:58.488Z,13.49
2022-08-01T07:45:56.065Z,12.98
2022-08-01T07:50:56.987Z,13.14
2022-08-01T07:55:55.423Z,13.45
2022-08-01T08:00:52.443Z,13.28
2022-08-01T08:05:58.123Z,13.65
2022-08-01T08:11:24.671Z,15.11
2022-08-01T08:16:30.042Z,15.06
2022-08-01T08:21:30.733Z,15.51
2022-08-01T08:26:28.320Z,15.86
2022-08-01T08:31:51.699Z,15.52
2022-08-01T08:36:48.224Z,17.36
2022-08-01T08:41:50.135Z,17.36
2022-08-01T08:47:09.929Z,17.38
2022-08-01T08:52:09.336Z,16.36
2022-08-01T08:57:11.056Z,15.80
2022-08-01T09:02:14.691Z,15.66
2022-08-01T09:07:14.915Z,15.87
2022-08-01T09:12:16.897Z,14.28
2022-08-01T09:17:17.090Z,14.20
2022-08-01T09:22:26.852Z,13.75
2022-08-01T09:27:25.892Z,13.96
2022-08-01T09:32:32.759Z,13.87
2022-08-01T09:37:37.253Z,14.65
2022-08-01T09:42:35.451Z,16.83
2022-08-01T09:47:39.620Z,19.05
2022-08-01T09:52:37.564Z,20.38
2022-08-01T09:57:41.241Z,20.21
2022-08-01T10:03:01.138Z,21.39
2022-08-01T10:08:08.695Z,21.76
2022-08-01T10:13:12.830Z,22.52
2022-08-01T10:18:25.263Z,22.80
2022-08-01T10:23:40.409Z,23.24
2022-08-01T10:28:49.052Z,23.99
2022-08-01T10:33:51.447Z,24.56
2022-08-01T10:38:52.185Z,24.99
2022-08-01T10:43:56.628Z,25.01
2022-08-01T10:49:02.956Z,25.37
2022-08-01T10:54:10.101Z,26.93
2022-08-01T10:59:11.723Z,27.19
2022-08-01T11:04:37.120Z,26.90
2022-08-01T11:09:51.206Z,25.78
2022-08-01T11:15:29.439Z,25.48
2022-08-01T11:20:44.931Z,25.40
2022-08-01T11:26:13.295Z,24.73
2022-08-01T11:31:36.977Z,25.17
2022-08-01T11:37:03.114Z,23.98
2022-08-01T11:42:19.845Z,24.06
2022-08-01T11:47:37.041Z,23.84
2022-08-01T11:52:36.662Z,23.74
2022-08-01T11:57:40.997Z,23.45
2022-08-01T12:02:39.675Z,22.36
2022-08-01T12:07:38.153Z,22.59
2022-08-01T12:12:37.004Z,22.57
2022-08-01T12:17:40.266Z,22.09
2022-08-01T12:22:43.849Z,21.83
2022-08-01T12:27:43.923Z,22.34
2022-08-01T12:32:43.390Z,22.10
2022-08-01T12:37:44.183Z,22.95
2022-08-01T12:42:43.075Z,24.30
2022-08-01T12:47:44.254Z,24.67
2022-08-01T12:52:54.371Z,24.16
2022-08-01T12:58:07.155Z,24.06
2022-08-01T13:03:10.947Z,24.50
2022-08-01T13:08:13.540Z,24.34
2022-08-01T13:13:28.242Z,23.65
2022-08-01T13:18:28.859Z,23.45
2022-08-01T13:24:01.605Z,23.57
2022-08-01T13:28:44.797Z,22.60
2022-08-01T13:33:46.477Z,22.25
2022-08-01T13:39:24.901Z,21.74
2022-08-01T13:44:27.340Z,22.39
2022-08-01T13:49:26.505Z,22.74
2022-08-01T13:54:39.055Z,22.47
2022-08-01T13:59:39.022Z,21.71
2022-08-01T14:04:42.755Z,23.08
2022-08-01T14:09:45.077Z,26.37
2022-08-01T14:15:03.643Z,28.00
2022-08-01T14:20:13.581Z,29.50
2022-08-01T14:30:52.102Z,29.97
2022-08-01T14:36:05.853Z,30.23
2022-08-01T14:41:09.551Z,30.97
2022-08-01T14:46:13.415Z,30.20
2022-08-01T14:51:11.461Z,31.03
2022-08-01T14:56:16.714Z,30.76
2022-08-01T15:01:37.199Z,30.58
2022-08-01T15:06:35.564Z,30.33
2022-08-01T15:11:37.016Z,30.59
2022-08-01T15:16:34.270Z,30.68
2022-08-01T15:21:41.120Z,30.53
2022-08-01T15:26:43.029Z,29.18
2022-08-01T15:31:40.580Z,28.35
2022-08-01T15:36:43.464Z,27.56
2022-08-01T15:41:42.258Z,28.50
2022-08-01T15:46:46.965Z,29.63
2022-08-01T15:51:45.907Z,30.00
2022-08-01T15:57:10.791Z,29.86
2022-08-01T16:02:22.030Z,29.50
2022-08-01T16:07:21.023Z,29.05
2022-08-01T16:12:22.272Z,29.15
2022-08-01T16:17:25.502Z,29.82
2022-08-01T16:22:23.438Z,29.28
2022-08-01T16:27:25.546Z,31.36
2022-08-01T16:32:50.241Z,32.37
2022-08-01T16:37:54.372Z,32.78
2022-08-01T16:42:55.211Z,33.22
2022-08-01T16:47:56.893Z,33.37
2022-08-01T16:52:56.758Z,34.06
2022-08-01T17:04:12.964Z,35.25
2022-08-01T17:09:13.099Z,35.65
2022-08-01T17:14:16.060Z,35.55
2022-08-01T17:19:16.072Z,35.39
2022-08-01T17:24:15.797Z,35.43
2022-08-01T17:29:18.514Z,35.22
2022-08-01T17:34:16.318Z,35.50
2022-08-01T17:39:15.402Z,35.44
2022-08-01T17:44:13.589Z,34.86
2022-08-01T17:49:45.249Z,34.94
2022-08-01T18:00:50.097Z,34.98
2022-08-01T18:05:53.227Z,34.86
2022-08-01T18:11:01.901Z,35.22
2022-08-01T18:16:18.481Z,35.59
2022-08-01T18:21:26.017Z,36.12
2022-08-01T18:26:24.389Z,36.38
2022-08-01T18:31:24.333Z,36.71
2022-08-01T18:36:32.427Z,36.96
2022-08-01T18:41:33.179Z,37.47
2022-08-01T18:46:46.225Z,37.29
2022-08-01T18:51:46.441Z,36.91
2022-08-01T18:56:44.766Z,36.81
2022-08-01T19:01:45.510Z,36.44
2022-08-01T19:06:51.751Z,36.32
2022-08-01T19:11:49.629Z,36.14
2022-08-01T19:16:53.784Z,35.87
2022-08-01T19:21:53.470Z,36.00
2022-08-01T19:26:53.443Z,35.97
2022-08-01T19:32:00.099Z,35.65
2022-08-01T19:37:03.653Z,35.87
2022-08-01T19:42:05.024Z,36.10
2022-08-01T19:47:04.246Z,36.61
2022-08-01T19:52:04.443Z,36.30
2022-08-01T19:57:05.958Z,36.64
2022-08-01T20:02:04.725Z,36.68
2022-08-01T20:07:03.960Z,37.04
2022-08-01T20:12:03.096Z,36.89
2022-08-01T20:17:11.522Z,36.49
2022-08-01T20:22:09.993Z,36.54
2022-08-01T20:27:09.568Z,36.56
2022-08-01T20:32:08.888Z,36.64
2022-08-01T20:37:08.765Z,36.88
2022-08-01T20:42:13.155Z,37.17
2022-08-01T20:47:13.482Z,37.00
2022-08-01T20:52:12.784Z,37.25
2022-08-01T20:57:20.341Z,37.66
2022-08-01T21:02:37.265Z,37.79
2022-08-01T21:07:39.695Z,37.87
2022-08-01T21:12:48.956Z,38.02
2022-08-01T21:18:05.310Z,38.04
2022-08-01T21:23:13.231Z,38.56
2022-08-01T21:28:13.509Z,38.75
2022-08-01T21:33:13.122Z,39.00
2022-08-01T21:38:12.082Z,39.95
2022-08-01T21:43:11.193Z,44.03
2022-08-01T21:48:10.254Z,46.30
2022-08-01T21:53:16.027Z,47.68
2022-08-01T21:58:31.925Z,48.57
2022-08-01T22:03:35.740Z,48.95
2022-08-01T22:08:35.181Z,49.26
2022-08-01T22:13:34.553Z,49.70
2022-08-01T22:18:37.150Z,49.58
2022-08-01T22:23:36.658Z,49.66
2022-08-01T22:28:40.523Z,48.89
2022-08-01T22:33:48.669Z,49.46
2022-08-01T22:38:46.592Z,49.53
2022-08-01T22:44:03.021Z,50.29
2022-08-01T22:49:09.514Z,50.32
2022-08-01T22:54:11.204Z,50.92
2022-08-01T22:59:15.248Z,51.64
2022-08-01T23:04:20.176Z,52.65
2022-08-01T23:09:53.140Z,52.19
2022-08-01T23:14:53.540Z,51.02
2022-08-01T23:19:51.566Z,50.20
2022-08-01T23:25:04.600Z,49.54
2022-08-01T23:30:07.146Z,49.21
2022-08-01T23:35:05.604Z,49.01
2022-08-01T23:40:05.426Z,48.62
2022-08-01T23:45:04.904Z,48.42
2022-08-01T23:50:10.077Z,48.37
2022-08-01T23:55:15.105Z,50.13
